createdAt,value
2023-03-26T00:01:33.910Z,7.90
2023-03-26T00:04:01.536Z,7.95
2023-03-26T00:06:30.680Z,6.78
2023-03-26T00:08:59.083Z,7.67
2023-03-26T00:11:28.245Z,7.93
2023-03-26T00:13:59.998Z,6.25
2023-03-26T00:16:30.437Z,9.00
2023-03-26T00:18:58.447Z,8.07
2023-03-26T00:21:28.235Z,11.33
2023-03-26T00:23:58.686Z,6.40
2023-03-26T00:26:31.267Z,7.30
2023-03-26T00:29:00.351Z,6.80
2023-03-26T00:31:27.757Z,9.45
2023-03-26T00:33:55.937Z,6.27
2023-03-26T00:36:26.021Z,8.75
2023-03-26T00:38:54.383Z,7.38
2023-03-26T00:41:25.963Z,7.88
2023-03-26T00:43:58.706Z,6.45
2023-03-26T00:46:27.432Z,6.30
2023-03-26T00:48:54.795Z,5.88
2023-03-26T00:51:22.208Z,7.65
2023-03-26T00:53:50.680Z,7.60
2023-03-26T00:56:18.497Z,7.40
2023-03-26T00:58:47.620Z,6.93
2023-03-26T01:01:20.597Z,8.05
2023-03-26T01:04:01.203Z,6.22
2023-03-26T01:06:36.482Z,5.35
2023-03-26T01:09:19.100Z,5.55
2023-03-26T01:11:48.960Z,5.67
2023-03-26T01:14:23.805Z,6.50
2023-03-26T01:16:55.350Z,4.65
2023-03-26T01:19:45.024Z,5.78
2023-03-26T01:22:22.372Z,6.88
2023-03-26T01:24:53.915Z,7.80
2023-03-26T01:27:43.895Z,7.38
2023-03-26T01:30:41.745Z,5.50
2023-03-26T01:33:41.734Z,7.82
2023-03-26T01:36:19.936Z,9.15
2023-03-26T01:39:10.753Z,10.10
2023-03-26T01:41:57.514Z,8.65
2023-03-26T01:44:59.696Z,11.00
2023-03-26T01:47:27.949Z,8.05
2023-03-26T01:49:54.886Z,8.68
2023-03-26T01:52:26.265Z,7.50
2023-03-26T01:54:56.825Z,6.38
2023-03-26T01:57:40.376Z,8.55
2023-03-26T02:00:11.514Z,6.05
2023-03-26T02:02:57.173Z,7.13
2023-03-26T02:05:32.028Z,7.63
2023-03-26T02:08:22.891Z,10.38
2023-03-26T02:10:55.992Z,10.05
2023-03-26T02:13:24.018Z,9.18
2023-03-26T02:15:59.852Z,8.60
2023-03-26T02:18:36.424Z,8.87
2023-03-26T02:21:06.768Z,7.95
2023-03-26T02:23:35.988Z,7.57
2023-03-26T02:26:08.282Z,7.03
2023-03-26T02:28:38.986Z,5.18
2023-03-26T02:31:06.535Z,6.60
2023-03-26T02:33:33.812Z,5.78
2023-03-26T02:36:02.198Z,5.43
2023-03-26T02:38:35.249Z,6.13
2023-03-26T02:41:04.547Z,6.90
2023-03-26T02:43:46.101Z,8.43
2023-03-26T02:46:16.651Z,10.10
2023-03-26T02:49:08.471Z,12.45
2023-03-26T02:51:36.127Z,11.52
2023-03-26T02:54:07.284Z,16.40
2023-03-26T02:56:53.066Z,14.60
2023-03-26T02:59:28.733Z,10.80
2023-03-26T03:02:15.673Z,10.75
2023-03-26T03:04:44.197Z,11.93
2023-03-26T03:07:14.669Z,7.18
2023-03-26T03:09:42.105Z,7.20
2023-03-26T03:12:42.393Z,6.38
2023-03-26T03:15:10.061Z,8.43
2023-03-26T03:17:37.126Z,9.68
2023-03-26T03:20:06.587Z,9.82
2023-03-26T03:22:33.752Z,7.10
2023-03-26T03:25:01.320Z,10.70
2023-03-26T03:27:29.655Z,10.45
2023-03-26T03:30:09.189Z,7.47
2023-03-26T03:32:45.095Z,10.80
2023-03-26T03:35:14.196Z,6.87
2023-03-26T03:37:44.640Z,12.82
2023-03-26T03:40:12.280Z,7.93
2023-03-26T03:42:41.309Z,7.40
2023-03-26T03:45:10.553Z,8.43
2023-03-26T03:47:59.394Z,9.03
2023-03-26T03:50:37.951Z,4.85
2023-03-26T03:53:22.567Z,3.80
2023-03-26T03:55:58.610Z,6.63
2023-03-26T03:58:54.783Z,5.93
2023-03-26T04:01:30.971Z,7.33
2023-03-26T04:04:03.630Z,5.38
2023-03-26T04:06:54.082Z,5.63
2023-03-26T04:09:22.344Z,7.50
2023-03-26T04:11:51.174Z,8.15
2023-03-26T04:14:37.147Z,7.77
2023-03-26T04:17:09.205Z,7.10
2023-03-26T04:19:38.635Z,6.75
2023-03-26T04:22:09.654Z,10.88
2023-03-26T04:24:44.005Z,14.68
2023-03-26T04:27:32.299Z,9.50
2023-03-26T04:30:18.482Z,11.93
2023-03-26T04:32:46.941Z,11.07
2023-03-26T04:35:16.811Z,9.35
2023-03-26T04:37:48.860Z,9.50
2023-03-26T04:40:39.335Z,13.33
2023-03-26T04:43:35.706Z,11.82
2023-03-26T04:46:24.028Z,5.43
2023-03-26T04:49:01.974Z,5.35
2023-03-26T04:51:38.494Z,8.77
2023-03-26T04:54:18.090Z,5.37
2023-03-26T04:56:58.804Z,7.80
2023-03-26T04:59:46.360Z,4.15
2023-03-26T05:02:14.741Z,7.72
2023-03-26T05:04:57.361Z,8.35
2023-03-26T05:07:28.200Z,10.40
2023-03-26T05:09:57.767Z,7.22
2023-03-26T05:12:37.201Z,7.90
2023-03-26T05:15:14.883Z,8.57
2023-03-26T05:18:11.193Z,11.30
2023-03-26T05:20:42.325Z,7.63
2023-03-26T05:23:10.958Z,8.68
2023-03-26T05:25:42.000Z,9.77
2023-03-26T05:28:16.097Z,10.75
2023-03-26T05:31:10.441Z,9.48
2023-03-26T05:33:40.352Z,7.83
2023-03-26T05:36:13.544Z,8.73
2023-03-26T05:38:47.453Z,10.48
2023-03-26T05:41:18.981Z,7.10
2023-03-26T05:43:48.342Z,13.25
2023-03-26T05:46:23.434Z,8.30
2023-03-26T05:48:52.107Z,8.85
2023-03-26T05:51:20.772Z,9.27
2023-03-26T05:53:56.602Z,9.27
2023-03-26T05:56:52.990Z,8.00
2023-03-26T05:59:38.764Z,10.17
2023-03-26T06:02:43.089Z,6.75
2023-03-26T06:05:39.545Z,7.85
2023-03-26T06:08:11.681Z,7.05
2023-03-26T06:10:39.843Z,9.70
2023-03-26T06:13:07.155Z,12.50
2023-03-26T06:15:37.648Z,9.65
2023-03-26T06:18:23.202Z,10.07
2023-03-26T06:21:16.047Z,8.77
2023-03-26T06:23:51.948Z,11.98
2023-03-26T06:26:37.126Z,8.20
2023-03-26T06:29:23.383Z,7.22
2023-03-26T06:32:18.939Z,6.47
2023-03-26T06:34:51.881Z,5.15
2023-03-26T06:37:18.852Z,5.35
2023-03-26T06:39:47.511Z,6.00
2023-03-26T06:42:19.801Z,7.65
2023-03-26T06:45:06.197Z,9.60
2023-03-26T06:47:51.618Z,6.97
2023-03-26T06:50:37.691Z,8.13
2023-03-26T06:53:26.847Z,6.67
2023-03-26T06:56:03.457Z,6.70
2023-03-26T06:58:49.105Z,5.30
2023-03-26T07:01:32.076Z,6.55
2023-03-26T07:04:17.831Z,5.68
2023-03-26T07:07:04.348Z,6.60
2023-03-26T07:09:49.655Z,6.82
2023-03-26T07:12:36.843Z,5.72
2023-03-26T07:15:22.281Z,7.13
2023-03-26T07:17:52.083Z,6.00
2023-03-26T07:20:25.719Z,7.80
2023-03-26T07:22:54.268Z,8.80
2023-03-26T07:25:57.224Z,7.10
2023-03-26T07:29:11.970Z,8.93
2023-03-26T07:31:47.645Z,14.43
2023-03-26T07:34:57.041Z,8.77
2023-03-26T07:38:20.537Z,8.50
2023-03-26T07:41:20.914Z,12.55
2023-03-26T07:44:36.029Z,10.88
2023-03-26T07:47:31.698Z,11.20
2023-03-26T07:50:25.649Z,10.50
2023-03-26T07:53:03.366Z,6.90
2023-03-26T07:56:16.099Z,12.80
2023-03-26T07:59:22.345Z,14.13
2023-03-26T08:02:41.510Z,18.00
2023-03-26T08:05:48.469Z,8.30
2023-03-26T08:09:26.004Z,8.32
2023-03-26T08:12:30.368Z,8.52
2023-03-26T08:15:21.580Z,10.40
2023-03-26T08:18:27.547Z,9.63
2023-03-26T08:21:01.105Z,7.77
2023-03-26T08:24:06.527Z,7.63
2023-03-26T08:26:45.600Z,9.35
2023-03-26T08:29:41.472Z,5.93
2023-03-26T08:32:17.313Z,5.82
2023-03-26T08:34:45.600Z,7.80
2023-03-26T08:37:13.408Z,4.93
2023-03-26T08:39:42.292Z,6.57
2023-03-26T08:42:32.149Z,4.75
2023-03-26T08:45:36.039Z,7.72
2023-03-26T08:48:30.035Z,4.70
2023-03-26T08:51:23.953Z,7.05
2023-03-26T08:54:24.000Z,6.18
2023-03-26T08:57:03.709Z,5.28
2023-03-26T09:00:11.224Z,7.15
2023-03-26T09:03:02.269Z,7.40
2023-03-26T09:05:48.108Z,6.45
2023-03-26T09:08:33.639Z,5.88
2023-03-26T09:11:27.222Z,5.25
2023-03-26T09:14:18.978Z,5.93
2023-03-26T09:17:07.328Z,4.60
2023-03-26T09:20:02.593Z,8.80
2023-03-26T09:23:01.135Z,4.93
2023-03-26T09:25:51.960Z,9.90
2023-03-26T09:28:37.874Z,5.78
2023-03-26T09:31:26.531Z,14.57
2023-03-26T09:33:57.425Z,20.73
2023-03-26T09:36:39.858Z,19.38
2023-03-26T09:39:09.743Z,6.35
2023-03-26T09:41:44.297Z,16.75
2023-03-26T09:44:14.718Z,31.57
2023-03-26T09:47:03.058Z,26.35
2023-03-26T09:49:51.319Z,27.13
2023-03-26T09:52:27.467Z,17.25
2023-03-26T09:55:16.302Z,14.70
2023-03-26T09:58:03.333Z,11.73
2023-03-26T10:00:49.070Z,11.00
2023-03-26T10:03:19.262Z,9.63
2023-03-26T10:06:07.036Z,12.88
2023-03-26T10:08:52.093Z,11.07
2023-03-26T10:11:22.105Z,5.20
2023-03-26T10:13:59.802Z,5.63
2023-03-26T10:16:44.263Z,6.15
2023-03-26T10:19:20.118Z,5.32
2023-03-26T10:22:12.512Z,5.03
2023-03-26T10:25:00.733Z,4.73
2023-03-26T10:28:10.145Z,7.10
2023-03-26T10:31:10.062Z,4.75
2023-03-26T10:33:57.943Z,4.85
2023-03-26T10:36:37.119Z,4.30
2023-03-26T10:39:43.567Z,5.32
2023-03-26T10:42:38.732Z,5.23
2023-03-26T10:45:58.947Z,4.72
2023-03-26T10:48:34.068Z,5.80
2023-03-26T10:51:36.699Z,4.95
2023-03-26T10:54:21.806Z,5.63
2023-03-26T10:56:53.045Z,7.53
2023-03-26T10:59:19.982Z,5.80
2023-03-26T11:02:14.587Z,6.47
2023-03-26T11:05:01.171Z,6.05
2023-03-26T11:07:44.315Z,6.75
2023-03-26T11:10:21.617Z,4.93
2023-03-26T11:12:59.037Z,6.22
2023-03-26T11:15:39.511Z,6.30
2023-03-26T11:18:16.870Z,7.00
2023-03-26T11:21:18.841Z,12.27
2023-03-26T11:24:06.032Z,6.20
2023-03-26T11:26:37.646Z,10.25
2023-03-26T11:29:32.601Z,10.98
2023-03-26T11:32:12.908Z,11.60
2023-03-26T11:34:47.196Z,7.78
2023-03-26T11:37:29.630Z,8.83
2023-03-26T11:39:59.481Z,11.70
2023-03-26T11:42:27.212Z,16.80
2023-03-26T11:45:01.327Z,30.27
2023-03-26T11:47:38.606Z,8.73
2023-03-26T11:50:10.886Z,9.63
2023-03-26T11:52:38.310Z,6.43
2023-03-26T11:55:06.969Z,5.13
2023-03-26T11:57:36.395Z,8.02
2023-03-26T12:00:18.317Z,13.15
2023-03-26T12:02:47.062Z,10.53
2023-03-26T12:05:22.837Z,9.43
2023-03-26T12:07:57.499Z,8.20
2023-03-26T12:10:38.551Z,8.38
2023-03-26T12:13:29.837Z,7.25
2023-03-26T12:16:07.688Z,8.13
2023-03-26T12:18:34.935Z,7.00
2023-03-26T12:21:22.503Z,8.93
2023-03-26T12:23:57.784Z,7.93
2023-03-26T12:26:47.070Z,8.07
2023-03-26T12:29:16.691Z,4.10
2023-03-26T12:31:50.778Z,5.30
2023-03-26T12:34:20.863Z,5.63
2023-03-26T12:36:53.785Z,4.00
2023-03-26T12:40:06.895Z,2.65
2023-03-26T12:44:52.815Z,5.87
2023-03-26T12:45:27.792Z,3.38
2023-03-26T12:48:03.772Z,2.92
2023-03-26T12:50:42.895Z,4.40
2023-03-26T12:53:18.130Z,5.03
2023-03-26T12:56:06.139Z,4.30
2023-03-26T12:58:55.294Z,4.93
2023-03-26T13:01:46.186Z,5.70
2023-03-26T13:04:21.393Z,6.30
2023-03-26T13:07:13.560Z,4.05
2023-03-26T13:09:44.901Z,4.33
2023-03-26T13:12:41.068Z,6.30
2023-03-26T13:15:31.530Z,4.78
2023-03-26T13:18:18.341Z,4.88
2023-03-26T13:21:19.594Z,5.43
2023-03-26T13:24:04.014Z,4.57
2023-03-26T13:27:02.371Z,4.65
2023-03-26T13:29:57.373Z,3.65
2023-03-26T13:32:33.770Z,2.80
2023-03-26T13:35:22.160Z,4.72
2023-03-26T13:37:56.155Z,3.73
2023-03-26T13:40:57.925Z,3.83
2023-03-26T13:43:45.150Z,3.30
2023-03-26T13:46:34.637Z,3.95
2023-03-26T13:49:13.820Z,4.30
2023-03-26T13:51:56.096Z,4.87
2023-03-26T13:54:32.706Z,3.83
2023-03-26T13:57:24.277Z,3.22
2023-03-26T13:59:58.326Z,4.32
2023-03-26T14:02:37.405Z,3.95
2023-03-26T14:05:17.546Z,3.90
2023-03-26T14:07:59.319Z,3.78
2023-03-26T14:10:34.254Z,4.35
2023-03-26T14:13:10.483Z,4.68
2023-03-26T14:15:46.090Z,3.88
2023-03-26T14:18:16.157Z,4.17
2023-03-26T14:21:00.874Z,6.78
2023-03-26T14:23:42.075Z,5.80
2023-03-26T14:26:48.335Z,4.75
2023-03-26T14:29:28.295Z,5.90
2023-03-26T14:32:24.179Z,3.87
2023-03-26T14:34:51.937Z,7.18
2023-03-26T14:37:58.750Z,4.85
2023-03-26T14:40:59.585Z,5.35
2023-03-26T14:43:54.887Z,4.85
2023-03-26T14:46:32.840Z,8.07
2023-03-26T14:49:29.458Z,5.10
2023-03-26T14:52:11.568Z,4.05
2023-03-26T14:54:42.900Z,5.40
2023-03-26T14:57:18.986Z,3.13
2023-03-26T15:00:12.956Z,4.70
2023-03-26T15:02:42.830Z,4.32
2023-03-26T15:05:41.753Z,2.67
2023-03-26T15:08:22.103Z,4.45
2023-03-26T15:10:55.528Z,3.20
2023-03-26T15:13:37.104Z,2.30
2023-03-26T15:16:31.081Z,4.43
2023-03-26T15:19:35.566Z,2.97
2023-03-26T15:22:21.326Z,3.03
2023-03-26T15:25:15.910Z,3.72
2023-03-26T15:28:04.646Z,3.80
2023-03-26T15:30:53.209Z,11.57
2023-03-26T15:33:52.352Z,11.07
2023-03-26T15:36:41.304Z,6.97
2023-03-26T15:39:27.878Z,6.22
2023-03-26T15:42:18.164Z,6.13
2023-03-26T15:45:13.181Z,6.80
2023-03-26T15:48:01.505Z,8.85
2023-03-26T15:50:31.332Z,13.85
2023-03-26T15:53:10.400Z,7.28
2023-03-26T15:55:51.744Z,5.33
2023-03-26T15:58:25.345Z,4.82
2023-03-26T16:01:19.225Z,6.35
2023-03-26T16:04:05.512Z,6.22
2023-03-26T16:07:03.783Z,7.50
2023-03-26T16:09:47.588Z,6.30
2023-03-26T16:12:17.866Z,5.78
2023-03-26T16:15:14.263Z,6.50
2023-03-26T16:18:15.700Z,5.88
2023-03-26T16:20:57.381Z,6.45
2023-03-26T16:23:55.338Z,6.13
2023-03-26T16:26:53.114Z,9.02
2023-03-26T16:29:30.595Z,8.88
2023-03-26T16:32:22.581Z,14.40
2023-03-26T16:34:59.720Z,36.22
2023-03-26T16:37:36.843Z,37.57
2023-03-26T16:40:22.618Z,13.27
2023-03-26T16:43:11.349Z,5.50
2023-03-26T16:45:54.970Z,6.22
2023-03-26T16:48:46.602Z,12.45
2023-03-26T16:51:35.132Z,11.57
2023-03-26T16:54:39.765Z,12.48
2023-03-26T16:57:19.125Z,6.35
2023-03-26T17:00:04.939Z,6.25
2023-03-26T17:02:55.092Z,9.07
2023-03-26T17:05:34.473Z,4.17
2023-03-26T17:08:13.008Z,6.70
2023-03-26T17:11:01.818Z,49.28
2023-03-26T17:13:37.975Z,22.75
2023-03-26T17:16:23.631Z,9.32
2023-03-26T17:19:19.079Z,15.20
2023-03-26T17:22:11.247Z,27.05
2023-03-26T17:25:05.000Z,34.75
2023-03-26T17:28:14.839Z,7.97
2023-03-26T17:31:04.571Z,11.05
2023-03-26T17:33:34.893Z,11.37
2023-03-26T17:36:30.325Z,51.22
2023-03-26T17:39:01.755Z,19.25
2023-03-26T17:41:52.331Z,11.00
2023-03-26T17:44:37.916Z,9.05
2023-03-26T17:47:15.242Z,30.17
2023-03-26T17:49:44.296Z,11.90
2023-03-26T17:52:49.674Z,19.45
2023-03-26T17:55:21.188Z,43.28
2023-03-26T17:57:59.630Z,144.10
2023-03-26T18:00:31.630Z,130.10
2023-03-26T18:03:08.331Z,91.43
2023-03-26T18:05:39.376Z,50.03
2023-03-26T18:08:28.634Z,64.25
2023-03-26T18:11:27.773Z,35.22
2023-03-26T18:14:01.091Z,64.83
2023-03-26T18:16:53.233Z,98.55
2023-03-26T18:19:23.126Z,63.10
2023-03-26T18:21:52.371Z,63.38
2023-03-26T18:24:24.944Z,48.05
2023-03-26T18:26:56.268Z,15.67
2023-03-26T18:29:29.848Z,36.38
2023-03-26T18:32:07.558Z,25.17
2023-03-26T18:34:39.656Z,27.15
2023-03-26T18:37:28.119Z,12.00
2023-03-26T18:40:12.907Z,13.17
2023-03-26T18:42:42.091Z,14.25
2023-03-26T18:45:36.274Z,7.63
2023-03-26T18:48:07.575Z,3.97
2023-03-26T18:50:40.049Z,3.78
2023-03-26T18:53:14.761Z,4.50
2023-03-26T18:55:44.132Z,3.03
2023-03-26T18:58:22.665Z,2.80
2023-03-26T19:00:53.140Z,4.18
2023-03-26T19:03:24.449Z,3.47
2023-03-26T19:05:56.549Z,4.17
2023-03-26T19:08:25.243Z,5.70
2023-03-26T19:10:54.368Z,6.28
2023-03-26T19:13:22.413Z,3.15
2023-03-26T19:15:52.116Z,4.57
2023-03-26T19:18:25.594Z,2.97
2023-03-26T19:20:56.210Z,4.57
2023-03-26T19:23:27.813Z,4.68
2023-03-26T19:25:56.773Z,3.10
2023-03-26T19:28:24.907Z,4.15
2023-03-26T19:30:56.462Z,4.90
2023-03-26T19:33:24.652Z,3.28
2023-03-26T19:36:04.949Z,3.47
2023-03-26T19:38:44.409Z,5.03
2023-03-26T19:41:46.737Z,3.10
2023-03-26T19:44:26.926Z,4.17
2023-03-26T19:47:02.992Z,4.70
2023-03-26T19:49:42.440Z,3.25
2023-03-26T19:52:20.863Z,11.10
2023-03-26T19:54:59.719Z,5.18
2023-03-26T19:57:43.312Z,4.37
2023-03-26T20:00:16.216Z,18.65
2023-03-26T20:02:46.560Z,23.30
2023-03-26T20:05:24.648Z,10.60
2023-03-26T20:07:53.040Z,3.58
2023-03-26T20:10:20.075Z,4.53
2023-03-26T20:12:47.317Z,3.30
2023-03-26T20:15:19.505Z,3.78
2023-03-26T20:17:50.289Z,3.72
2023-03-26T20:20:17.663Z,3.00
2023-03-26T20:22:47.125Z,2.80
2023-03-26T20:25:24.806Z,3.70
2023-03-26T20:27:55.444Z,3.47
2023-03-26T20:30:37.082Z,3.53
2023-03-26T20:33:13.065Z,2.90
2023-03-26T20:35:41.028Z,2.90
2023-03-26T20:38:09.908Z,3.35
2023-03-26T20:40:37.422Z,3.85
2023-03-26T20:43:09.902Z,2.60
2023-03-26T20:45:36.741Z,3.45
2023-03-26T20:48:03.981Z,4.30
2023-03-26T20:50:31.662Z,4.20
2023-03-26T20:53:00.871Z,5.05
2023-03-26T20:55:28.520Z,6.47
2023-03-26T20:57:55.811Z,4.85
2023-03-26T21:00:23.462Z,5.97
2023-03-26T21:02:55.838Z,5.45
2023-03-26T21:05:25.871Z,7.43
2023-03-26T21:07:54.455Z,12.65
2023-03-26T21:10:22.189Z,10.10
2023-03-26T21:12:57.477Z,13.33
2023-03-26T21:15:25.415Z,9.43
2023-03-26T21:17:53.239Z,10.88
2023-03-26T21:20:20.936Z,5.63
2023-03-26T21:23:19.208Z,3.38
2023-03-26T21:25:53.222Z,4.87
2023-03-26T21:28:41.379Z,4.30
2023-03-26T21:31:14.922Z,5.63
2023-03-26T21:33:42.767Z,3.60
2023-03-26T21:36:11.022Z,5.00
2023-03-26T21:38:39.110Z,3.60
2023-03-26T21:41:06.345Z,3.42
2023-03-26T21:43:33.735Z,3.67
2023-03-26T21:46:01.316Z,4.13
2023-03-26T21:48:29.376Z,4.50
2023-03-26T21:51:02.533Z,4.30
2023-03-26T21:53:30.396Z,5.97
2023-03-26T21:56:06.918Z,7.75
2023-03-26T21:58:53.080Z,6.55
2023-03-26T22:01:41.162Z,8.32
2023-03-26T22:04:21.715Z,7.60
2023-03-26T22:06:56.953Z,10.50
2023-03-26T22:09:33.840Z,12.65
2023-03-26T22:12:02.590Z,9.77
2023-03-26T22:14:29.786Z,8.40
2023-03-26T22:16:57.003Z,5.57
2023-03-26T22:19:24.170Z,8.95
2023-03-26T22:21:51.332Z,6.80
2023-03-26T22:24:18.515Z,7.30
2023-03-26T22:26:45.603Z,6.82
2023-03-26T22:29:14.208Z,8.10
2023-03-26T22:31:42.042Z,10.80
2023-03-26T22:34:09.383Z,9.02
2023-03-26T22:36:37.974Z,5.65
2023-03-26T22:39:07.272Z,4.95
2023-03-26T22:41:34.119Z,4.73
2023-03-26T22:44:16.792Z,6.32
2023-03-26T22:46:49.434Z,5.75
2023-03-26T22:49:17.755Z,5.22
2023-03-26T22:51:44.646Z,5.07
2023-03-26T22:54:11.926Z,5.93
2023-03-26T22:56:38.912Z,4.18
2023-03-26T22:59:06.251Z,4.55
2023-03-26T23:01:33.196Z,5.72
2023-03-26T23:04:00.455Z,6.40
2023-03-26T23:06:27.418Z,4.60
2023-03-26T23:08:57.109Z,5.65
2023-03-26T23:11:24.123Z,7.35
2023-03-26T23:13:51.902Z,5.90
2023-03-26T23:16:20.017Z,5.25
2023-03-26T23:18:47.459Z,6.83
2023-03-26T23:21:21.964Z,8.05
2023-03-26T23:23:52.300Z,7.93
2023-03-26T23:26:19.332Z,9.48
2023-03-26T23:28:46.551Z,6.53
2023-03-26T23:31:14.225Z,5.53
2023-03-26T23:33:48.060Z,5.57
2023-03-26T23:36:18.562Z,5.15
2023-03-26T23:38:48.523Z,4.82
2023-03-26T23:41:18.260Z,4.82
2023-03-26T23:43:54.550Z,5.70
2023-03-26T23:46:30.965Z,5.88
2023-03-26T23:49:03.712Z,4.47
2023-03-26T23:51:31.420Z,5.82
2023-03-26T23:53:59.906Z,7.32
2023-03-26T23:56:32.705Z,3.80
2023-03-26T23:59:00.888Z,5.28
